Terminal Aerodrome Forecast
Issued by NWS

Home | Current Version | Previous Version | Graphics & Text | Print | Product List | Glossary On
Versions: 1 2 3 4 5 6 7 8 9 10 11 12 13 14 15
000
FTUS43 KTOP 151700
TAFFOE
TAF
KFOE 151720Z 1518/1618 35012KT 6SM -DZ FEW010 BKN020
     FM151900 01013G20KT P6SM SCT030
     FM160100 03003KT P6SM SKC=

USA.gov is the U.S. government's official web portal to all federal, state and local government web resources and services.